Time;durP1;ratioP1;P1;durP2;ratioP2;P2;SDS_P1;SDS_P2;PMS_P1;PMS_P2;Temp;Humidity;BMP_temperature;BMP_pressure;BME280_temperature;BME280_humidity;BME280_pressure;Samples;Min_cycle;Max_cycle;Signal;HPM_P1;HPM_P2
2023/10/13 00:03:40;;;;;;;5.93;3.85;;;;;;;20.21;100.00;100325.25;8404444;28;20040;-61
2023/10/13 00:07:41;;;;;;;8.07;4.88;;;;;;;20.14;100.00;100321.66;8405485;28;20070;-61
2023/10/13 00:11:46;;;;;;;8.65;4.03;;;;;;;20.08;100.00;100325.19;8408986;28;20036;-61
2023/10/13 00:16:03;;;;;;;9.35;4.70;;;;;;;20.04;100.00;100318.44;8399463;28;20045;-61
2023/10/13 00:20:11;;;;;;;6.82;4.90;;;;;;;19.94;100.00;100317.97;8353653;28;20063;-61
2023/10/13 00:24:14;;;;;;;11.85;4.95;;;;;;;19.94;100.00;100309.75;8369110;28;20075;-61
2023/10/13 00:28:23;;;;;;;7.88;5.30;;;;;;;19.86;100.00;100293.44;8374349;28;20468;-61
2023/10/13 00:32:27;;;;;;;10.30;5.35;;;;;;;19.77;100.00;100297.41;8369209;28;20040;-60
2023/10/13 00:36:27;;;;;;;8.95;5.63;;;;;;;19.69;100.00;100284.72;8367115;28;20048;-61
2023/10/13 00:40:41;;;;;;;13.00;6.35;;;;;;;19.65;100.00;100282.59;8368869;28;20050;-61
2023/10/13 00:44:43;;;;;;;15.30;6.25;;;;;;;19.54;100.00;100285.94;8357627;28;20037;-61
2023/10/13 00:48:51;;;;;;;8.73;5.30;;;;;;;19.42;100.00;100281.03;8369948;28;20044;-61
2023/10/13 00:52:52;;;;;;;10.05;5.80;;;;;;;19.39;100.00;100281.44;8370882;28;20410;-60
2023/10/13 00:57:04;;;;;;;12.02;6.65;;;;;;;19.37;100.00;100269.81;8370999;28;20048;-61
2023/10/13 01:01:36;;;;;;;9.55;6.15;;;;;;;19.37;100.00;100264.31;8361368;28;20510;-60
2023/10/13 01:05:26;;;;;;;17.52;6.53;;;;;;;19.35;100.00;100258.22;8369061;28;20059;-60
2023/10/13 01:09:26;;;;;;;13.38;7.18;;;;;;;19.39;100.00;100259.50;8367603;28;20048;-60
2023/10/13 01:13:27;;;;;;;13.10;6.70;;;;;;;19.38;100.00;100260.56;8371446;28;20040;-60
2023/10/13 01:17:31;;;;;;;14.35;7.15;;;;;;;19.35;100.00;100247.25;8370083;28;20041;-61
2023/10/13 01:21:33;;;;;;;12.88;7.13;;;;;;;19.34;100.00;100236.50;8401506;28;20075;-62
2023/10/13 01:25:33;;;;;;;16.90;7.30;;;;;;;19.32;100.00;100235.84;8404813;28;20124;-61
2023/10/13 01:29:34;;;;;;;11.88;7.00;;;;;;;19.28;100.00;100224.41;8401556;28;20032;-62
2023/10/13 01:33:34;;;;;;;17.05;7.90;;;;;;;19.23;100.00;100213.19;8401454;28;20528;-62
2023/10/13 01:37:35;;;;;;;12.30;6.88;;;;;;;19.27;100.00;100214.50;8402394;28;20514;-62
2023/10/13 01:41:38;;;;;;;13.82;7.72;;;;;;;19.31;100.00;100207.56;8396015;28;20047;-62
2023/10/13 01:45:46;;;;;;;14.82;8.52;;;;;;;19.32;100.00;100214.75;8402481;28;20040;-62
2023/10/13 01:49:50;;;;;;;11.95;7.65;;;;;;;19.29;100.00;100204.19;8403541;28;20045;-61
2023/10/13 01:53:56;;;;;;;12.88;7.68;;;;;;;19.30;100.00;100211.38;8402239;28;20190;-62
2023/10/13 01:57:56;;;;;;;17.02;7.90;;;;;;;19.23;100.00;100188.53;8402522;28;20040;-61
2023/10/13 02:02:00;;;;;;;11.40;8.30;;;;;;;19.17;100.00;100181.13;8399937;28;20040;-61
2023/10/13 02:06:04;;;;;;;13.53;7.67;;;;;;;19.11;100.00;100187.41;8403295;28;20391;-61
2023/10/13 02:10:06;;;;;;;13.87;8.50;;;;;;;19.15;100.00;100185.97;8395213;28;20529;-62
2023/10/13 02:14:07;;;;;;;15.20;7.97;;;;;;;19.15;100.00;100175.00;8392050;28;20279;-61
2023/10/13 02:18:09;;;;;;;16.00;8.40;;;;;;;19.27;100.00;100173.41;8399907;28;20345;-62
2023/10/13 02:22:10;;;;;;;18.55;7.97;;;;;;;19.42;100.00;100162.25;8402721;28;20040;-61
2023/10/13 02:26:15;;;;;;;21.55;8.10;;;;;;;19.55;100.00;100164.22;8401331;28;20040;-61
2023/10/13 02:30:23;;;;;;;14.23;8.30;;;;;;;19.66;100.00;100160.84;8393685;28;20039;-59
2023/10/13 02:34:24;;;;;;;15.60;7.78;;;;;;;19.66;100.00;100153.47;8331995;28;20588;-61
2023/10/13 02:38:33;;;;;;;13.75;7.55;;;;;;;19.75;100.00;100143.13;8385602;28;20583;-59
2023/10/13 02:42:34;;;;;;;13.95;6.38;;;;;;;19.83;100.00;100129.22;8366839;28;20037;-59
2023/10/13 02:46:36;;;;;;;13.60;7.50;;;;;;;19.87;100.00;100128.59;8369452;28;20406;-58
2023/10/13 02:50:43;;;;;;;9.93;7.10;;;;;;;19.99;100.00;100124.19;8367588;28;20410;-59
2023/10/13 02:54:47;;;;;;;12.38;7.40;;;;;;;19.97;100.00;100109.00;8313723;28;20052;-61
2023/10/13 02:58:53;;;;;;;13.23;7.10;;;;;;;19.95;100.00;100116.59;8311424;28;20045;-61
2023/10/13 03:02:58;;;;;;;13.02;7.68;;;;;;;19.96;100.00;100107.28;8309406;28;20119;-60
2023/10/13 03:06:59;;;;;;;15.25;7.88;;;;;;;19.90;100.00;100108.13;8314471;28;20040;-60
2023/10/13 03:11:01;;;;;;;11.90;7.50;;;;;;;19.84;100.00;100095.25;8312267;28;20598;-60
2023/10/13 03:15:20;;;;;;;13.90;8.50;;;;;;;19.87;100.00;100092.09;8349316;28;20047;-60
2023/10/13 03:19:21;;;;;;;17.58;9.05;;;;;;;19.86;100.00;100080.28;8375479;28;20231;-58
2023/10/13 03:23:24;;;;;;;11.27;8.52;;;;;;;19.82;100.00;100072.69;8373595;28;20135;-60
2023/10/13 03:27:34;;;;;;;12.38;8.68;;;;;;;19.85;100.00;100072.25;8356792;28;20183;-60
2023/10/13 03:31:39;;;;;;;13.68;8.13;;;;;;;19.83;100.00;100057.91;8371350;28;20045;-61
2023/10/13 03:35:43;;;;;;;13.38;8.05;;;;;;;19.87;100.00;100043.56;8373453;28;20122;-61
2023/10/13 03:39:45;;;;;;;13.02;8.75;;;;;;;19.93;100.00;100047.34;8371347;28;20048;-58
2023/10/13 03:43:45;;;;;;;19.45;8.07;;;;;;;20.05;100.00;100045.63;8375749;28;20032;-58
2023/10/13 03:47:45;;;;;;;18.23;8.27;;;;;;;20.10;100.00;100034.88;8361526;28;20179;-60
2023/10/13 03:51:47;;;;;;;11.55;7.63;;;;;;;20.19;100.00;100028.13;8371964;28;20128;-58
2023/10/13 03:55:48;;;;;;;12.50;7.32;;;;;;;20.28;100.00;100027.66;8374226;28;20260;-59
2023/10/13 03:59:48;;;;;;;10.93;7.22;;;;;;;20.30;100.00;100032.94;8371438;28;20620;-59
2023/10/13 04:04:04;;;;;;;13.70;8.63;;;;;;;20.16;100.00;100020.31;8370197;28;20041;-59
2023/10/13 04:16:54;;;;;;;12.65;7.40;;;;;;;20.20;100.00;100016.09;8362005;28;20048;-60
2023/10/13 04:21:07;;;;;;;13.07;7.20;;;;;;;20.22;100.00;100005.75;8369179;28;20044;-60
2023/10/13 04:25:34;;;;;;;11.55;6.95;;;;;;;20.33;100.00;100007.81;8365574;28;20495;-61
2023/10/13 04:30:47;;;;;;;11.40;7.45;;;;;;;20.26;100.00;100001.50;8372604;28;20043;-61
2023/10/13 04:33:56;;;;;;;9.07;5.97;;;;;;;20.20;100.00;99994.13;8367595;28;20036;-62
2023/10/13 04:38:18;;;;;;;10.98;6.32;;;;;;;20.15;100.00;99978.31;8349816;28;20053;-60
2023/10/13 04:42:39;;;;;;;8.48;6.28;;;;;;;20.22;100.00;99981.03;8318232;28;20212;-60
2023/10/13 04:52:26;;;;;;;9.57;5.55;;;;;;;20.47;100.00;99960.03;8282852;27;20435;-60
2023/10/13 05:04:21;;;;;;;10.77;5.47;;;;;;;20.61;100.00;99958.91;8319899;28;20034;-60
2023/10/13 05:44:53;;;;;;;9.30;4.80;;;;;;;20.50;100.00;99951.34;8325548;28;20040;-61
2023/10/13 05:52:19;;;;;;;9.68;5.47;;;;;;;20.50;100.00;99943.13;8383221;27;20967;-59
2023/10/13 06:31:25;;;;;;;14.10;5.10;;;;;;;20.67;100.00;99911.31;8396341;28;20061;-60
2023/10/13 06:35:26;;;;;;;12.50;4.78;;;;;;;20.83;100.00;99924.56;8395097;28;20071;-60
2023/10/13 06:39:35;;;;;;;15.23;4.80;;;;;;;21.10;100.00;99915.06;8397690;28;20356;-60
2023/10/13 06:43:39;;;;;;;12.18;4.47;;;;;;;21.40;100.00;99907.84;8395548;28;20039;-60
2023/10/13 06:47:42;;;;;;;14.45;5.55;;;;;;;21.73;100.00;99904.78;8385801;28;20040;-60
2023/10/13 06:51:43;;;;;;;13.85;4.60;;;;;;;22.02;100.00;99893.06;8374527;28;20120;-61
2023/10/13 06:55:46;;;;;;;15.02;4.43;;;;;;;22.22;100.00;99891.75;8342596;28;20299;-61
2023/10/13 06:59:47;;;;;;;16.77;4.95;;;;;;;22.30;100.00;99891.47;8348086;28;20032;-61
2023/10/13 07:03:52;;;;;;;10.52;3.70;;;;;;;22.29;100.00;99881.50;8366798;28;20041;-59
2023/10/13 07:07:56;;;;;;;11.65;3.92;;;;;;;22.30;100.00;99891.47;8370086;28;20094;-58
2023/10/13 07:12:02;;;;;;;15.18;4.78;;;;;;;22.27;100.00;99886.41;8373439;28;20502;-59
2023/10/13 07:16:18;;;;;;;18.48;4.75;;;;;;;22.21;100.00;99884.59;8365944;28;20037;-59
2023/10/13 07:20:34;;;;;;;15.52;4.68;;;;;;;22.25;100.00;99872.03;8372675;28;20032;-59
2023/10/13 07:24:39;;;;;;;9.98;4.30;;;;;;;22.22;100.00;99875.22;8370745;28;20041;-59
2023/10/13 07:28:43;;;;;;;15.38;3.88;;;;;;;22.32;99.52;99870.00;8354008;28;20041;-59
2023/10/13 07:32:45;;;;;;;14.25;4.03;;;;;;;22.36;99.56;99871.25;8337076;28;20116;-59
2023/10/13 07:36:46;;;;;;;11.65;4.18;;;;;;;22.39;98.24;99878.19;8339694;28;20041;-58
2023/10/13 07:40:51;;;;;;;15.60;4.75;;;;;;;22.47;97.14;99875.97;8338821;28;20038;-59
2023/10/13 07:44:55;;;;;;;13.43;4.30;;;;;;;22.60;93.95;99870.28;8336725;28;20068;-58
2023/10/13 07:49:08;;;;;;;18.17;4.93;;;;;;;22.85;90.45;99872.91;8340789;28;20029;-58
2023/10/13 07:53:23;;;;;;;15.45;4.35;;;;;;;22.95;89.42;99875.91;8337106;28;20045;-60
2023/10/13 07:57:31;;;;;;;15.40;4.03;;;;;;;23.16;86.92;99878.97;8336973;28;20292;-59
2023/10/13 08:01:32;;;;;;;15.73;4.63;;;;;;;23.39;83.99;99882.88;8337599;28;20044;-58
2023/10/13 08:05:55;;;;;;;14.07;3.85;;;;;;;23.62;82.47;99875.44;8337609;28;20033;-58
2023/10/13 08:09:57;;;;;;;16.70;4.45;;;;;;;23.53;81.23;99867.75;8337498;28;20048;-59
2023/10/13 08:13:59;;;;;;;10.88;3.97;;;;;;;23.71;79.66;99845.53;8336294;28;20045;-59
2023/10/13 08:18:17;;;;;;;16.40;4.53;;;;;;;23.76;79.01;99852.03;8337866;28;20543;-59
2023/10/13 08:26:38;;;;;;;13.73;3.92;;;;;;;23.86;77.38;99855.00;8400159;27;20346;-60
2023/10/13 08:30:53;;;;;;;12.35;4.75;;;;;;;24.08;75.26;99844.19;8392150;27;20086;-60
2023/10/13 08:43:44;;;;;;;17.77;5.28;;;;;;;23.97;73.12;99834.00;8393187;27;20054;-60
2023/10/13 08:47:53;;;;;;;11.40;4.45;;;;;;;24.06;73.62;99838.91;8390310;27;20447;-60
2023/10/13 08:52:05;;;;;;;15.27;4.80;;;;;;;24.05;73.84;99833.63;8397144;27;20043;-62
2023/10/13 08:56:14;;;;;;;16.15;4.55;;;;;;;24.22;72.63;99829.00;8397633;27;20123;-62
2023/10/13 09:00:55;;;;;;;18.08;4.97;;;;;;;24.39;72.28;99829.88;8395194;27;20033;-63
2023/10/13 09:04:38;;;;;;;10.25;5.00;;;;;;;24.67;71.11;99824.41;8393643;27;20048;-63
2023/10/13 09:09:26;;;;;;;9.43;4.50;;;;;;;24.79;71.11;99816.84;8399055;27;20040;-62
2023/10/13 09:13:03;;;;;;;14.55;5.40;;;;;;;24.66;71.31;99820.78;8382739;28;20132;-63
2023/10/13 09:17:38;;;;;;;12.20;5.10;;;;;;;24.72;71.15;99819.81;8377716;28;20037;-63
2023/10/13 09:21:43;;;;;;;10.25;5.72;;;;;;;26.31;67.05;99811.44;8382815;28;20387;-60
2023/10/13 09:26:08;;;;;;;11.05;4.65;;;;;;;27.52;62.08;99801.50;8409831;28;20033;-60
2023/10/13 09:30:18;;;;;;;12.02;5.18;;;;;;;27.98;60.92;99800.66;8410797;28;20446;-61
2023/10/13 09:34:23;;;;;;;17.88;5.18;;;;;;;28.37;60.25;99788.03;8412326;28;20036;-62
2023/10/13 09:38:24;;;;;;;12.95;5.07;;;;;;;28.23;60.43;99803.53;8411424;28;20092;-60
2023/10/13 09:42:26;;;;;;;13.07;5.30;;;;;;;28.70;59.66;99787.59;8411869;28;20052;-59
2023/10/13 09:46:28;;;;;;;16.00;5.63;;;;;;;29.12;58.76;99790.94;8409917;28;20040;-60
2023/10/13 09:50:33;;;;;;;13.88;5.25;;;;;;;29.41;58.12;99778.13;8390094;28;20531;-60
2023/10/13 09:54:41;;;;;;;9.60;5.30;;;;;;;28.66;59.34;99772.53;8388390;28;20041;-60
2023/10/13 09:58:51;;;;;;;11.77;5.85;;;;;;;27.25;62.57;99764.66;8387797;28;20559;-60
2023/10/13 10:02:57;;;;;;;12.38;5.70;;;;;;;26.75;64.77;99760.34;8389524;28;20087;-60
2023/10/13 10:07:00;;;;;;;10.98;5.90;;;;;;;27.14;63.87;99776.78;8388396;28;20504;-60
2023/10/13 10:11:16;;;;;;;11.93;5.65;;;;;;;29.27;59.74;99765.88;8388730;28;20041;-61
2023/10/13 10:15:33;;;;;;;13.88;5.47;;;;;;;29.90;57.31;99759.63;8388496;28;20037;-61
2023/10/13 10:19:55;;;;;;;16.05;5.50;;;;;;;31.06;54.38;99758.94;8386194;28;20393;-61
2023/10/13 10:23:55;;;;;;;15.40;6.05;;;;;;;31.50;53.48;99762.47;8388478;28;20135;-60
2023/10/13 10:27:57;;;;;;;11.70;5.78;;;;;;;31.44;53.29;99758.06;8389200;28;20032;-61
2023/10/13 10:31:58;;;;;;;13.20;5.78;;;;;;;31.43;52.61;99759.16;8388706;28;20033;-61
2023/10/13 10:36:00;;;;;;;7.53;5.13;;;;;;;31.55;52.62;99759.59;8410979;28;20055;-60
2023/10/13 10:40:03;;;;;;;16.05;5.55;;;;;;;31.95;52.29;99747.97;8387338;28;20048;-61
2023/10/13 10:44:10;;;;;;;12.93;6.60;;;;;;;31.87;51.60;99731.88;8387866;28;20040;-61
2023/10/13 10:48:17;;;;;;;14.10;5.47;;;;;;;31.67;52.37;99737.66;8388178;28;20119;-61
2023/10/13 10:52:18;;;;;;;14.65;5.70;;;;;;;31.98;51.42;99730.59;8387822;28;20409;-63
2023/10/13 10:56:24;;;;;;;13.85;5.72;;;;;;;32.30;50.89;99722.31;8386419;28;20109;-63
2023/10/13 11:00:36;;;;;;;12.27;5.18;;;;;;;30.19;54.04;99707.63;8386299;28;20499;-62
2023/10/13 11:04:50;;;;;;;18.45;5.35;;;;;;;28.59;57.98;99707.97;8387894;28;20087;-64
2023/10/13 11:09:03;;;;;;;13.17;5.70;;;;;;;27.96;58.93;99697.28;8387437;28;20338;-61
2023/10/13 11:13:40;;;;;;;16.30;5.77;;;;;;;27.50;60.19;99703.75;8387651;28;20309;-61
2023/10/13 11:17:26;;;;;;;9.00;4.63;;;;;;;27.25;60.84;99700.78;8384403;28;20048;-61
2023/10/13 11:21:30;;;;;;;13.60;5.20;;;;;;;27.11;61.39;99694.84;8418838;28;20053;-63
2023/10/13 11:25:34;;;;;;;14.27;5.22;;;;;;;26.98;62.34;99694.50;8387457;28;20591;-63
2023/10/13 11:29:35;;;;;;;10.25;5.25;;;;;;;27.09;62.62;99690.69;8386222;28;20455;-63
2023/10/13 11:33:35;;;;;;;18.15;5.90;;;;;;;27.04;62.35;99690.66;8381953;28;20056;-62
2023/10/13 11:37:38;;;;;;;18.38;5.20;;;;;;;26.98;61.89;99677.84;8383264;28;20438;-62
2023/10/13 11:41:45;;;;;;;12.98;4.50;;;;;;;27.26;61.14;99671.94;8384039;28;20051;-62
2023/10/13 11:46:12;;;;;;;12.02;4.45;;;;;;;27.43;60.60;99664.25;8380576;28;20036;-63
2023/10/13 11:50:09;;;;;;;15.48;5.32;;;;;;;27.33;60.86;99664.22;8380019;28;20040;-61
2023/10/13 11:54:11;;;;;;;20.00;5.20;;;;;;;27.09;61.37;99668.47;8404898;28;20043;-60
2023/10/13 11:58:12;;;;;;;16.00;4.90;;;;;;;26.93;61.06;99655.63;8382318;28;20038;-60
2023/10/13 12:06:46;;;;;;;19.23;5.20;;;;;;;26.74;61.91;99656.03;8380882;28;20379;-59
2023/10/13 12:10:59;;;;;;;14.15;4.95;;;;;;;26.74;61.54;99649.66;8382342;28;20044;-59
2023/10/13 12:15:09;;;;;;;18.60;4.37;;;;;;;26.76;60.80;99648.28;8380079;28;20053;-59
2023/10/13 12:19:11;;;;;;;18.25;6.57;;;;;;;26.79;60.62;99642.22;8384326;28;20032;-60
2023/10/13 12:23:17;;;;;;;16.65;5.38;;;;;;;26.78;60.36;99629.44;8385542;28;20044;-60
2023/10/13 12:27:23;;;;;;;13.82;5.07;;;;;;;26.67;61.01;99638.81;8403897;28;20036;-61
2023/10/13 12:31:26;;;;;;;13.70;4.60;;;;;;;26.71;60.65;99639.09;8382906;28;20048;-60
2023/10/13 12:35:29;;;;;;;17.35;5.18;;;;;;;26.69;59.52;99630.22;8381846;28;20052;-60
2023/10/13 12:48:55;;;;;;;20.73;4.88;;;;;;;26.83;58.86;99630.59;8379880;28;20581;-61
2023/10/13 12:49:38;;;;;;;15.32;4.45;;;;;;;26.70;59.13;99626.31;8377585;28;20033;-61
2023/10/13 12:52:32;;;;;;;13.85;4.95;;;;;;;26.64;59.10;99622.69;8380363;28;20045;-61
2023/10/13 12:56:33;;;;;;;19.52;4.57;;;;;;;26.59;59.22;99608.75;8381742;28;20040;-61
2023/10/13 13:00:33;;;;;;;16.77;4.97;;;;;;;26.63;59.39;99607.13;8376560;28;20540;-60
2023/10/13 13:04:36;;;;;;;18.75;4.78;;;;;;;26.58;59.56;99604.31;8381771;28;20035;-61
2023/10/13 13:08:44;;;;;;;17.95;5.45;;;;;;;26.48;59.67;99589.53;8363519;28;20040;-60
2023/10/13 13:12:44;;;;;;;13.43;4.70;;;;;;;26.44;60.10;99607.81;8367577;28;20060;-61
2023/10/13 13:16:48;;;;;;;18.50;5.00;;;;;;;26.35;60.69;99612.97;8343127;28;20103;-61
2023/10/13 13:20:56;;;;;;;10.98;3.70;;;;;;;26.28;60.91;99615.16;8358481;28;20089;-61
2023/10/13 13:24:56;;;;;;;19.20;4.60;;;;;;;26.25;60.96;99629.53;8363571;28;20148;-61
2023/10/13 13:28:56;;;;;;;18.92;4.72;;;;;;;26.09;61.39;99619.41;8376353;28;20498;-58
2023/10/13 13:33:03;;;;;;;19.17;4.38;;;;;;;26.10;61.54;99598.91;8365565;28;20862;-62
2023/10/13 13:37:04;;;;;;;11.38;3.78;;;;;;;26.16;60.56;99586.78;8362689;28;20464;-61
2023/10/13 13:41:09;;;;;;;18.80;5.20;;;;;;;26.17;60.53;99587.63;8356635;28;20033;-62
2023/10/13 13:45:27;;;;;;;14.05;5.38;;;;;;;26.20;59.95;99585.13;8365268;28;20066;-62
2023/10/13 13:49:39;;;;;;;15.07;4.50;;;;;;;26.30;59.28;99574.16;8384610;28;20055;-66
2023/10/13 13:53:44;;;;;;;22.30;4.82;;;;;;;26.19;59.99;99575.16;8388205;28;20044;-59
2023/10/13 13:57:46;;;;;;;24.60;5.07;;;;;;;26.34;59.98;99589.16;8386385;28;20129;-60
2023/10/13 14:01:47;;;;;;;15.57;5.00;;;;;;;26.39;59.72;99586.44;8388430;28;20048;-65
2023/10/13 14:05:50;;;;;;;18.30;5.05;;;;;;;26.51;59.72;99580.69;8388059;28;20056;-65
2023/10/13 14:09:51;;;;;;;16.95;5.32;;;;;;;26.44;59.97;99594.75;8386295;28;20059;-60
2023/10/13 14:13:55;;;;;;;13.68;4.18;;;;;;;26.37;59.90;99605.25;8386143;28;20037;-60
2023/10/13 14:17:56;;;;;;;13.15;4.15;;;;;;;26.33;60.21;99593.03;8386375;28;20458;-62
2023/10/13 14:21:57;;;;;;;9.73;3.97;;;;;;;26.45;58.91;99590.91;8386540;28;20032;-59
2023/10/13 14:25:58;;;;;;;23.08;4.85;;;;;;;26.43;59.30;99604.19;8387115;28;20106;-58
2023/10/13 14:29:58;;;;;;;11.73;4.50;;;;;;;26.25;59.58;99574.09;8385407;28;20510;-58
2023/10/13 14:33:59;;;;;;;21.95;6.10;;;;;;;26.28;58.86;99595.75;8381412;28;20048;-59
2023/10/13 14:37:59;;;;;;;16.75;4.75;;;;;;;26.13;60.11;99579.00;8379676;28;20040;-59
2023/10/13 14:42:02;;;;;;;15.57;4.85;;;;;;;26.06;59.73;99586.69;8384459;28;20048;-64
2023/10/13 14:46:08;;;;;;;10.70;4.50;;;;;;;26.06;59.23;99592.22;8374414;28;20189;-60
2023/10/13 14:50:25;;;;;;;17.00;4.50;;;;;;;25.97;59.80;99593.78;8384939;28;20071;-59
2023/10/13 14:54:32;;;;;;;13.07;3.90;;;;;;;25.89;59.55;99580.41;8380474;28;20713;-60
2023/10/13 14:58:33;;;;;;;13.50;3.58;;;;;;;25.84;59.17;99576.75;8356577;28;20045;-59
2023/10/13 15:02:36;;;;;;;14.68;4.40;;;;;;;25.77;59.22;99568.63;8368801;28;20164;-59
2023/10/13 15:06:36;;;;;;;13.48;4.78;;;;;;;25.86;58.67;99569.84;8368446;28;20052;-59
2023/10/13 15:10:36;;;;;;;10.48;4.32;;;;;;;25.81;59.02;99561.50;8365238;28;20128;-59
2023/10/13 15:14:39;;;;;;;11.57;4.50;;;;;;;25.74;59.13;99560.03;8371912;28;20059;-61
2023/10/13 15:18:40;;;;;;;11.95;4.60;;;;;;;25.65;59.65;99556.91;8370439;28;20153;-61
2023/10/13 15:22:40;;;;;;;10.85;3.90;;;;;;;25.60;59.57;99554.09;8368179;28;20094;-64
2023/10/13 15:26:47;;;;;;;9.52;3.90;;;;;;;25.60;59.64;99544.94;8367654;28;20179;-63
2023/10/13 15:30:56;;;;;;;20.25;5.22;;;;;;;25.51;60.13;99558.41;8375313;28;20044;-61
2023/10/13 15:34:57;;;;;;;17.80;4.43;;;;;;;25.33;62.25;99564.28;8364518;28;20641;-60
2023/10/13 15:38:57;;;;;;;12.70;4.40;;;;;;;25.19;62.29;99540.88;8367058;28;20041;-61
2023/10/13 15:42:59;;;;;;;23.77;5.47;;;;;;;25.16;62.43;99538.63;8361703;28;20041;-60
2023/10/13 15:46:59;;;;;;;10.82;4.00;;;;;;;25.16;61.58;99538.63;8365258;28;20036;-61
2023/10/13 15:51:03;;;;;;;20.48;5.50;;;;;;;25.23;60.79;99525.41;8367276;28;20037;-60
2023/10/13 15:55:07;;;;;;;22.08;4.45;;;;;;;25.31;61.03;99516.63;8382608;28;20094;-61
2023/10/13 15:59:07;;;;;;;14.63;4.00;;;;;;;25.08;62.13;99514.16;8387570;28;20039;-61
2023/10/13 16:03:11;;;;;;;11.80;3.97;;;;;;;25.14;61.81;99506.75;8397005;28;20037;-61
2023/10/13 16:07:12;;;;;;;;;;;;;;;25.03;62.25;99503.03;8383263;28;20041;-61
2023/10/13 16:11:13;;;;;;;14.70;4.32;;;;;;;25.00;62.59;99509.06;8383087;28;20135;-60
2023/10/13 16:15:14;;;;;;;18.80;4.50;;;;;;;25.12;61.77;99503.44;8381751;28;20039;-59
2023/10/13 16:19:21;;;;;;;14.38;4.10;;;;;;;24.97;62.56;99515.13;8383657;28;20033;-59
2023/10/13 16:23:23;;;;;;;8.48;4.35;;;;;;;24.98;62.79;99508.53;8383900;28;20568;-60
2023/10/13 16:27:23;;;;;;;18.40;4.10;;;;;;;24.90;63.22;99508.97;8380939;28;20044;-58
2023/10/13 16:31:27;;;;;;;11.13;3.80;;;;;;;24.88;63.20;99508.38;8379960;28;20495;-59
2023/10/13 16:35:33;;;;;;;;;;;;;;;24.90;63.60;99503.44;8381317;28;20052;-58
2023/10/13 16:39:33;;;;;;;7.57;3.53;;;;;;;24.81;63.95;99502.22;8382205;28;19920;-58
2023/10/13 16:43:35;;;;;;;9.32;3.53;;;;;;;24.85;64.07;99484.00;8382771;28;20052;-59
2023/10/13 16:47:36;;;;;;;11.50;4.03;;;;;;;24.78;64.09;99472.31;8382231;28;20139;-59
2023/10/13 16:51:36;;;;;;;14.90;3.72;;;;;;;24.69;64.86;99479.38;8382374;28;20055;-61
2023/10/13 16:55:41;;;;;;;12.18;3.60;;;;;;;24.70;64.86;99481.06;8413531;28;20047;-60
2023/10/13 16:59:41;;;;;;;10.73;3.80;;;;;;;24.91;63.86;99467.22;8384807;28;20096;-59
2023/10/13 17:03:46;;;;;;;11.50;3.75;;;;;;;24.86;64.56;99453.31;8387779;28;20041;-59
2023/10/13 17:07:47;;;;;;;8.45;3.97;;;;;;;24.76;64.88;99442.16;8388735;28;20037;-59
2023/10/13 17:11:48;;;;;;;8.70;4.25;;;;;;;24.64;65.88;99465.47;8388582;28;20521;-61
2023/10/13 17:15:48;;;;;;;8.80;3.78;;;;;;;24.51;66.34;99452.00;8388882;28;20445;-59
2023/10/13 17:19:49;;;;;;;5.70;3.40;;;;;;;24.45;67.34;99455.81;8377503;28;20036;-60
2023/10/13 17:23:52;;;;;;;10.07;4.15;;;;;;;24.29;69.38;99457.53;8415048;28;20127;-60
2023/10/13 17:27:52;;;;;;;5.57;3.33;;;;;;;24.15;70.01;99449.88;8385926;28;20037;-60
2023/10/13 17:31:53;;;;;;;9.27;4.38;;;;;;;24.01;70.34;99443.03;8387903;28;20064;-60
2023/10/13 17:35:53;;;;;;;14.27;4.05;;;;;;;24.00;69.49;99424.78;8385445;28;20344;-60
2023/10/13 17:39:54;;;;;;;9.90;4.20;;;;;;;24.08;69.25;99432.63;8387943;28;20178;-63
2023/10/13 17:43:55;;;;;;;9.30;3.78;;;;;;;24.04;69.49;99414.91;8386092;28;20037;-63
2023/10/13 17:47:56;;;;;;;11.48;4.38;;;;;;;23.99;69.83;99429.47;8384418;28;20036;-63
2023/10/13 17:51:56;;;;;;;8.02;3.83;;;;;;;23.96;70.30;99429.13;8386117;28;20082;-60
2023/10/13 17:56:00;;;;;;;13.93;4.25;;;;;;;23.91;70.12;99404.19;8387293;28;20037;-60
2023/10/13 18:00:02;;;;;;;8.60;3.92;;;;;;;23.87;70.15;99406.59;8386957;28;20278;-63
2023/10/13 18:04:18;;;;;;;10.32;3.67;;;;;;;23.92;69.59;99403.09;8344957;27;20388;-62
2023/10/13 18:08:22;;;;;;;10.45;4.63;;;;;;;23.99;69.48;99409.28;8337118;28;20091;-62
2023/10/13 18:12:36;;;;;;;13.98;3.97;;;;;;;23.92;69.86;99400.31;8341030;27;20438;-61
2023/10/13 18:16:49;;;;;;;13.05;4.03;;;;;;;23.92;69.50;99394.81;8310616;27;20971;-61
2023/10/13 18:21:02;;;;;;;11.23;4.03;;;;;;;23.91;70.15;99402.25;8326479;27;20370;-59
2023/10/13 18:25:22;;;;;;;10.85;4.30;;;;;;;23.81;70.19;99404.84;8327228;27;20876;-60
2023/10/13 18:29:36;;;;;;;11.68;4.57;;;;;;;23.71;70.91;99393.66;8351490;27;20818;-60
2023/10/13 18:33:41;;;;;;;8.40;3.83;;;;;;;23.88;69.39;99393.66;8339838;28;20034;-60
2023/10/13 18:37:53;;;;;;;14.65;4.15;;;;;;;24.03;68.60;99391.16;8318580;27;20458;-59
2023/10/13 18:42:08;;;;;;;14.73;5.30;;;;;;;24.01;68.91;99377.59;8399656;27;20372;-60
2023/10/13 18:46:25;;;;;;;14.30;4.80;;;;;;;23.98;68.66;99378.09;8337289;27;21439;-60
2023/10/13 18:50:41;;;;;;;8.30;3.88;;;;;;;24.17;67.62;99386.91;8398950;27;20369;-59
2023/10/13 18:54:53;;;;;;;14.38;4.22;;;;;;;24.28;66.52;99363.84;8323486;27;20777;-60
2023/10/13 18:59:06;;;;;;;11.55;4.55;;;;;;;24.41;66.44;99377.28;8320280;27;20357;-59
2023/10/13 19:03:18;;;;;;;26.70;5.50;;;;;;;24.27;67.72;99309.69;8377825;27;20943;-60
2023/10/13 19:07:31;;;;;;;8.45;4.03;;;;;;;24.32;67.85;99265.53;8323235;27;20363;-60
2023/10/13 19:11:45;;;;;;;11.75;4.18;;;;;;;23.81;70.18;99279.78;8423410;27;20909;-60
2023/10/13 19:15:48;;;;;;;19.25;4.75;;;;;;;23.79;70.76;99295.78;8392995;27;20153;-60
2023/10/13 19:19:51;;;;;;;13.57;4.68;;;;;;;23.87;70.06;99298.09;8390631;27;20454;-59
2023/10/13 19:23:55;;;;;;;13.07;4.57;;;;;;;24.07;67.62;99293.72;8387397;27;20557;-60
2023/10/13 19:27:59;;;;;;;13.37;4.67;;;;;;;24.27;66.55;99306.91;8391725;27;20059;-59
2023/10/13 19:32:11;;;;;;;18.05;5.13;;;;;;;24.37;66.10;99294.06;8296023;28;20397;-61
2023/10/13 19:36:23;;;;;;;15.65;4.50;;;;;;;24.38;65.44;99283.84;8394649;27;20757;-61
2023/10/13 19:40:50;;;;;;;18.73;5.55;;;;;;;24.44;64.85;99277.28;8409273;27;20353;-61
2023/10/13 19:45:03;;;;;;;13.02;4.93;;;;;;;24.43;64.96;99286.69;8399987;27;20364;-61
2023/10/13 19:49:06;;;;;;;;;;;;;;;24.56;64.20;99294.53;8358228;28;20033;-61
2023/10/13 19:53:10;;;;;;;18.57;4.93;;;;;;;24.46;67.30;99298.03;8369737;28;19949;-61
2023/10/13 19:57:26;;;;;;;17.55;5.10;;;;;;;24.50;65.25;99299.19;8364942;27;20357;-61
2023/10/13 20:01:39;;;;;;;18.15;4.95;;;;;;;24.47;65.49;99287.81;8331209;27;20401;-61
2023/10/13 20:05:39;;;;;;;17.13;5.15;;;;;;;24.56;65.70;99286.25;8292917;28;20056;-61
2023/10/13 20:09:42;;;;;;;15.57;4.85;;;;;;;24.40;67.24;99281.66;8296443;28;20044;-59
2023/10/13 20:13:45;;;;;;;18.80;5.00;;;;;;;24.26;67.30;99291.44;8324409;28;20049;-60
2023/10/13 20:17:45;;;;;;;13.68;5.50;;;;;;;24.19;68.93;99268.72;8325805;28;20164;-59
2023/10/13 20:21:46;;;;;;;15.88;4.72;;;;;;;23.99;72.17;99285.03;8326918;28;20511;-60
2023/10/13 20:25:51;;;;;;;15.68;5.50;;;;;;;23.45;75.79;99267.41;8323263;28;20044;-58
2023/10/13 20:29:52;;;;;;;13.20;5.78;;;;;;;23.31;75.02;99271.66;8323566;28;20098;-59
2023/10/13 20:33:54;;;;;;;17.60;4.90;;;;;;;23.44;73.63;99251.13;8324368;28;20052;-60
2023/10/13 20:37:55;;;;;;;17.23;5.80;;;;;;;23.42;73.60;99234.00;8331016;28;20045;-60
2023/10/13 20:41:56;;;;;;;17.70;6.22;;;;;;;23.40;73.76;99241.69;8332368;28;20076;-61
2023/10/13 20:45:58;;;;;;;17.33;5.65;;;;;;;23.48;74.00;99252.31;8355325;28;20045;-61
2023/10/13 20:49:58;;;;;;;14.60;5.45;;;;;;;23.57;73.89;99256.28;8324390;28;20791;-61
2023/10/13 20:53:59;;;;;;;18.08;6.03;;;;;;;23.53;74.81;99252.34;8328758;28;20045;-61
2023/10/13 20:57:59;;;;;;;19.92;6.30;;;;;;;23.45;74.99;99239.03;8325765;28;20037;-61